createdAt,value
2019-03-03T00:00:51.425Z,99837.00
2019-03-03T00:03:23.064Z,99845.00
2019-03-03T00:05:54.735Z,99804.00
2019-03-03T00:08:26.393Z,99838.00
2019-03-03T00:10:57.958Z,99844.00
2019-03-03T00:13:29.505Z,99843.00
2019-03-03T00:16:03.904Z,99841.00
2019-03-03T00:18:37.360Z,99842.00
2019-03-03T00:21:13.310Z,99838.00
2019-03-03T00:23:46.203Z,99842.00
2019-03-03T00:26:17.988Z,99840.00
2019-03-03T00:28:49.666Z,99848.00
2019-03-03T00:31:39.608Z,99843.00
2019-03-03T00:34:11.322Z,99822.00
2019-03-03T00:37:02.156Z,99822.00
2019-03-03T00:39:41.735Z,99818.00
2019-03-03T00:42:32.127Z,99813.00
2019-03-03T00:45:37.721Z,99811.00
2019-03-03T00:48:28.149Z,99791.00
2019-03-03T00:51:18.991Z,99793.00
2019-03-03T00:54:13.070Z,99788.00
2019-03-03T00:57:05.612Z,99781.00
2019-03-03T00:59:57.295Z,99782.00
2019-03-03T01:02:49.279Z,99774.00
2019-03-03T01:05:40.840Z,99775.00
2019-03-03T01:08:29.856Z,99773.00
2019-03-03T01:11:30.968Z,99767.00
2019-03-03T01:14:12.178Z,99762.00
2019-03-03T01:17:02.023Z,99765.00
2019-03-03T01:19:56.101Z,99760.00
2019-03-03T01:22:39.737Z,99756.00
2019-03-03T01:25:11.296Z,99751.00
2019-03-03T01:27:42.849Z,99739.00
2019-03-03T01:30:14.915Z,99749.00
2019-03-03T01:32:46.459Z,99747.00
2019-03-03T01:35:19.008Z,99742.00
2019-03-03T01:37:50.487Z,99732.00
2019-03-03T01:40:21.993Z,99738.00
2019-03-03T01:42:54.896Z,99721.00
2019-03-03T01:45:29.442Z,99723.00
2019-03-03T01:48:00.995Z,99715.00
2019-03-03T01:50:35.362Z,99712.00
2019-03-03T01:53:09.684Z,99706.00
2019-03-03T01:55:41.194Z,99702.00
2019-03-03T01:58:13.331Z,99704.00
2019-03-03T02:00:45.019Z,99690.00
2019-03-03T02:03:16.577Z,99692.00
2019-03-03T02:05:48.085Z,99693.00
2019-03-03T02:08:19.598Z,99680.00
2019-03-03T02:10:51.179Z,99666.00
2019-03-03T02:13:22.647Z,99670.00
2019-03-03T02:15:54.215Z,99655.00
2019-03-03T02:18:26.065Z,99647.00
2019-03-03T02:20:57.541Z,99652.00
2019-03-03T02:23:29.033Z,99649.00
2019-03-03T02:26:00.603Z,99645.00
2019-03-03T02:28:32.184Z,99654.00
2019-03-03T02:31:03.871Z,99652.00
2019-03-03T02:33:35.492Z,99651.00
2019-03-03T02:36:07.307Z,99647.00
2019-03-03T02:38:39.217Z,99640.00
2019-03-03T02:41:13.744Z,99640.00
2019-03-03T02:43:45.241Z,99640.00
2019-03-03T02:46:16.696Z,99636.00
2019-03-03T02:48:48.345Z,99635.00
2019-03-03T02:51:19.832Z,99619.00
2019-03-03T02:53:51.333Z,99621.00
2019-03-03T02:56:22.957Z,99618.00
2019-03-03T02:58:54.515Z,99604.00
2019-03-03T03:01:29.601Z,99593.00
2019-03-03T03:04:01.059Z,99593.00
2019-03-03T03:07:03.618Z,99601.00
2019-03-03T03:09:57.447Z,99593.00
2019-03-03T03:12:53.613Z,99581.00
2019-03-03T03:15:53.009Z,99586.00
2019-03-03T03:18:49.519Z,99575.00
2019-03-03T03:21:48.777Z,99571.00
2019-03-03T03:24:38.256Z,99573.00
2019-03-03T03:27:28.655Z,99566.00
2019-03-03T03:30:17.629Z,99571.00
2019-03-03T03:33:11.003Z,99569.00
2019-03-03T03:36:07.211Z,99567.00
2019-03-03T03:38:45.602Z,99552.00
2019-03-03T03:41:31.321Z,99555.00
2019-03-03T03:44:18.639Z,99546.00
2019-03-03T03:47:27.502Z,99541.00
2019-03-03T03:50:05.996Z,99530.00
2019-03-03T03:52:55.061Z,99537.00
2019-03-03T03:55:46.587Z,99541.00
2019-03-03T03:58:46.160Z,99521.00
2019-03-03T04:01:47.013Z,99522.00
2019-03-03T04:04:26.775Z,99511.00
2019-03-03T04:07:26.640Z,99508.00
2019-03-03T04:10:02.528Z,99509.00
2019-03-03T04:12:43.609Z,99513.00
2019-03-03T04:15:20.200Z,99497.00
2019-03-03T04:17:57.215Z,99502.00
2019-03-03T04:20:50.710Z,99484.00
2019-03-03T04:23:44.184Z,99495.00
2019-03-03T04:26:52.970Z,99486.00
2019-03-03T04:29:52.673Z,99472.00
2019-03-03T04:32:46.146Z,99475.00
2019-03-03T04:35:25.408Z,99468.00
2019-03-03T04:38:21.686Z,99468.00
2019-03-03T04:41:24.377Z,99472.00
2019-03-03T04:44:06.796Z,99461.00
2019-03-03T04:47:15.486Z,99454.00
2019-03-03T04:49:55.304Z,99456.00
2019-03-03T04:52:44.668Z,99448.00
2019-03-03T04:55:41.228Z,99437.00
2019-03-03T04:58:38.130Z,99451.00
2019-03-03T05:01:27.095Z,99434.00
2019-03-03T05:04:08.304Z,99445.00
2019-03-03T05:06:48.167Z,99438.00
2019-03-03T05:09:35.794Z,99427.00
2019-03-03T05:12:34.618Z,99429.00
2019-03-03T05:15:33.001Z,99431.00
2019-03-03T05:18:32.614Z,99423.00
2019-03-03T05:21:04.150Z,99420.00
2019-03-03T05:23:35.816Z,99422.00
2019-03-03T05:26:07.456Z,99421.00
2019-03-03T05:28:39.014Z,99413.00
2019-03-03T05:31:10.519Z,99416.00
2019-03-03T05:33:42.293Z,99417.00
2019-03-03T05:36:13.771Z,99409.00
2019-03-03T05:38:45.299Z,99413.00
2019-03-03T05:41:16.843Z,99406.00
2019-03-03T05:43:48.352Z,99404.00
2019-03-03T05:46:19.794Z,99392.00
2019-03-03T05:48:51.259Z,99400.00
2019-03-03T05:51:23.721Z,99395.00
2019-03-03T05:53:55.180Z,99406.00
2019-03-03T05:56:26.664Z,99407.00
2019-03-03T05:59:01.173Z,99402.00
2019-03-03T06:01:32.651Z,99402.00
2019-03-03T06:04:04.160Z,99399.00
2019-03-03T06:06:35.608Z,99404.00
2019-03-03T06:09:08.192Z,99392.00
2019-03-03T06:11:39.738Z,99402.00
2019-03-03T06:14:11.247Z,99401.00
2019-03-03T06:16:42.750Z,99391.00
2019-03-03T06:19:14.244Z,99401.00
2019-03-03T06:21:45.764Z,99391.00
2019-03-03T06:24:18.738Z,99391.00
2019-03-03T06:26:50.226Z,99401.00
2019-03-03T06:29:21.697Z,99392.00
2019-03-03T06:31:53.175Z,99383.00
2019-03-03T06:34:24.688Z,99399.00
2019-03-03T06:36:56.160Z,99386.00
2019-03-03T06:39:27.621Z,99399.00
2019-03-03T06:41:59.118Z,99390.00
2019-03-03T06:44:30.654Z,99391.00
2019-03-03T06:47:02.123Z,99396.00
2019-03-03T06:49:33.656Z,99387.00
2019-03-03T06:52:05.177Z,99387.00
2019-03-03T06:54:36.634Z,99386.00
2019-03-03T06:57:08.154Z,99389.00
2019-03-03T06:59:40.638Z,99386.00
2019-03-03T07:02:12.155Z,99389.00
2019-03-03T07:04:43.608Z,99388.00
2019-03-03T07:07:15.115Z,99385.00
2019-03-03T07:09:46.853Z,99388.00
2019-03-03T07:12:18.563Z,99384.00
2019-03-03T07:14:50.180Z,99376.00
2019-03-03T07:17:21.899Z,99385.00
2019-03-03T07:19:53.404Z,99396.00
2019-03-03T07:22:24.918Z,99407.00
2019-03-03T07:24:56.446Z,99401.00
2019-03-03T07:27:28.047Z,99397.00
2019-03-03T07:29:59.595Z,99392.00
2019-03-03T07:32:31.897Z,99396.00
2019-03-03T07:35:03.471Z,99398.00
2019-03-03T07:37:35.107Z,99402.00
2019-03-03T07:40:07.377Z,99398.00
2019-03-03T07:42:38.893Z,99413.00
2019-03-03T07:45:11.747Z,99412.00
2019-03-03T07:47:50.388Z,99416.00
2019-03-03T07:50:22.092Z,99403.00
2019-03-03T07:52:53.891Z,99412.00
2019-03-03T07:55:25.478Z,99411.00
2019-03-03T07:57:58.903Z,99401.00
2019-03-03T08:00:30.455Z,99416.00
2019-03-03T08:03:02.064Z,99409.00
2019-03-03T08:05:36.223Z,99406.00
2019-03-03T08:08:07.802Z,99405.00
2019-03-03T08:10:39.335Z,99403.00
2019-03-03T08:13:11.807Z,99388.00
2019-03-03T08:15:43.337Z,99395.00
2019-03-03T08:18:15.213Z,99393.00
2019-03-03T08:20:47.073Z,99399.00
2019-03-03T08:23:18.654Z,99392.00
2019-03-03T08:25:50.195Z,99401.00
2019-03-03T08:28:21.769Z,99405.00
2019-03-03T08:30:55.016Z,99405.00
2019-03-03T08:33:26.518Z,99403.00
2019-03-03T08:35:57.992Z,99409.00
2019-03-03T08:38:30.059Z,99401.00
2019-03-03T08:41:02.885Z,99404.00
2019-03-03T08:43:49.647Z,99404.00
2019-03-03T08:46:44.520Z,99410.00
2019-03-03T08:49:21.255Z,99400.00
2019-03-03T08:52:07.783Z,99404.00
2019-03-03T08:55:00.093Z,99406.00
2019-03-03T08:57:50.803Z,99413.00
2019-03-03T09:00:40.151Z,99408.00
2019-03-03T09:03:31.534Z,99419.00
2019-03-03T09:06:15.457Z,99417.00
2019-03-03T09:09:06.087Z,99419.00
2019-03-03T09:11:59.001Z,99423.00
2019-03-03T09:14:52.277Z,99414.00
2019-03-03T09:17:38.384Z,99420.00
2019-03-03T09:20:19.838Z,99420.00
2019-03-03T09:23:04.021Z,99415.00
2019-03-03T09:25:53.060Z,99425.00
2019-03-03T09:28:49.966Z,99414.00
2019-03-03T09:31:52.878Z,99426.00
2019-03-03T09:34:43.421Z,99431.00
2019-03-03T09:37:25.448Z,99422.00
2019-03-03T09:40:16.206Z,99420.00
2019-03-03T09:43:01.004Z,99415.00
2019-03-03T09:45:57.465Z,99427.00
2019-03-03T09:48:49.993Z,99429.00
2019-03-03T09:51:52.938Z,99407.00
2019-03-03T09:54:35.801Z,99425.00
2019-03-03T09:57:29.138Z,99414.00
2019-03-03T10:00:28.499Z,99424.00
2019-03-03T10:03:12.926Z,99429.00
2019-03-03T10:05:58.964Z,99427.00
2019-03-03T10:08:52.890Z,99441.00
2019-03-03T10:11:46.627Z,99440.00
2019-03-03T10:14:25.471Z,99431.00
2019-03-03T10:17:28.020Z,99433.00
2019-03-03T10:20:37.239Z,99432.00
2019-03-03T10:23:28.095Z,99444.00
2019-03-03T10:26:19.619Z,99434.00
2019-03-03T10:29:16.395Z,99444.00
2019-03-03T10:32:05.727Z,99437.00
2019-03-03T10:34:55.091Z,99432.00
2019-03-03T10:37:45.552Z,99420.00
2019-03-03T10:40:48.270Z,99425.00
2019-03-03T10:43:37.301Z,99434.00
2019-03-03T10:46:30.504Z,99430.00
2019-03-03T10:49:08.954Z,99427.00
2019-03-03T10:52:03.584Z,99422.00
2019-03-03T10:54:48.356Z,99434.00
2019-03-03T10:57:37.334Z,99439.00
2019-03-03T11:00:37.658Z,99429.00
2019-03-03T11:03:34.594Z,99439.00
2019-03-03T11:06:23.816Z,99433.00
2019-03-03T11:09:02.688Z,99431.00
2019-03-03T11:12:16.589Z,99427.00
2019-03-03T11:15:18.261Z,99428.00
2019-03-03T11:17:55.086Z,99436.00
2019-03-03T11:20:48.986Z,99431.00
2019-03-03T11:23:51.775Z,99438.00
2019-03-03T11:27:10.981Z,99446.00
2019-03-03T11:29:56.175Z,99439.00
2019-03-03T11:32:38.881Z,99438.00
2019-03-03T11:35:30.418Z,99446.00
2019-03-03T11:38:20.518Z,99439.00
2019-03-03T11:41:06.103Z,99438.00
2019-03-03T11:44:00.533Z,99441.00
2019-03-03T11:46:43.285Z,99429.00
2019-03-03T11:49:40.132Z,99428.00
2019-03-03T11:52:22.050Z,99429.00
2019-03-03T11:55:22.064Z,99424.00
2019-03-03T11:58:06.047Z,99416.00
2019-03-03T12:01:00.293Z,99421.00
2019-03-03T12:03:50.886Z,99423.00
2019-03-03T12:06:57.399Z,99413.00
2019-03-03T12:09:45.726Z,99419.00
2019-03-03T12:12:42.120Z,99412.00
2019-03-03T12:15:24.438Z,99409.00
2019-03-03T12:18:12.685Z,99414.00
2019-03-03T12:21:03.212Z,99407.00
2019-03-03T12:23:52.977Z,99404.00
2019-03-03T12:26:53.113Z,99405.00
2019-03-03T12:29:37.311Z,99413.00
2019-03-03T12:32:43.102Z,99420.00
2019-03-03T12:35:31.605Z,99409.00
2019-03-03T12:38:40.409Z,99417.00
2019-03-03T12:41:34.297Z,99400.00
2019-03-03T12:44:29.648Z,99402.00
2019-03-03T12:47:17.567Z,99398.00
2019-03-03T12:50:14.123Z,99385.00
2019-03-03T12:53:07.201Z,99384.00
2019-03-03T12:55:56.329Z,99391.00
2019-03-03T12:58:59.117Z,99392.00
2019-03-03T13:01:52.778Z,99385.00
2019-03-03T13:04:35.088Z,99387.00
2019-03-03T13:07:16.051Z,99370.00
2019-03-03T13:10:09.210Z,99364.00
2019-03-03T13:13:06.107Z,99368.00
2019-03-03T13:16:05.602Z,99372.00
2019-03-03T13:19:16.097Z,99357.00
2019-03-03T13:22:20.943Z,99354.00
2019-03-03T13:25:00.328Z,99344.00
2019-03-03T13:27:53.804Z,99349.00
2019-03-03T13:31:03.084Z,99349.00
2019-03-03T13:33:52.307Z,99352.00
2019-03-03T13:36:39.091Z,99346.00
2019-03-03T13:39:30.944Z,99343.00
2019-03-03T13:42:27.554Z,99347.00
2019-03-03T13:44:59.238Z,99338.00
2019-03-03T13:47:30.984Z,99335.00
2019-03-03T13:50:02.548Z,99328.00
2019-03-03T13:52:34.137Z,99326.00
2019-03-03T13:55:06.765Z,99325.00
2019-03-03T13:57:38.358Z,99315.00
2019-03-03T14:00:17.665Z,99311.00
2019-03-03T14:02:50.007Z,99305.00
2019-03-03T14:05:24.303Z,99300.00
2019-03-03T14:07:56.146Z,99306.00
2019-03-03T14:10:27.959Z,99307.00
2019-03-03T14:12:59.609Z,99297.00
2019-03-03T14:15:31.128Z,99306.00
2019-03-03T14:18:03.219Z,99293.00
2019-03-03T14:20:36.636Z,99290.00
2019-03-03T14:23:08.340Z,99285.00
2019-03-03T14:25:40.001Z,99274.00
2019-03-03T14:28:11.692Z,99269.00
2019-03-03T14:30:44.127Z,99278.00
2019-03-03T14:33:19.149Z,99262.00
2019-03-03T14:35:51.783Z,99267.00
2019-03-03T14:38:24.589Z,99267.00
2019-03-03T14:40:56.227Z,99267.00
2019-03-03T14:43:27.804Z,99260.00
2019-03-03T14:45:59.535Z,99253.00
2019-03-03T14:48:31.099Z,99252.00
2019-03-03T14:51:02.666Z,99249.00
2019-03-03T14:53:34.373Z,99242.00
2019-03-03T14:56:06.365Z,99238.00
2019-03-03T14:58:41.729Z,99238.00
2019-03-03T15:01:13.328Z,99237.00
2019-03-03T15:03:47.521Z,99227.00
2019-03-03T15:06:24.340Z,99220.00
2019-03-03T15:08:52.626Z,99215.00
2019-03-03T15:11:24.255Z,99218.00
2019-03-03T15:13:56.399Z,99225.00
2019-03-03T15:16:27.948Z,99220.00
2019-03-03T15:18:59.462Z,99210.00
2019-03-03T15:21:31.263Z,99222.00
2019-03-03T15:24:03.653Z,99214.00
2019-03-03T15:26:35.197Z,99211.00
2019-03-03T15:29:09.872Z,99192.00
2019-03-03T15:31:41.578Z,99201.00
2019-03-03T15:34:13.228Z,99195.00
2019-03-03T15:36:44.812Z,99192.00
2019-03-03T15:39:16.635Z,99185.00
2019-03-03T15:41:48.325Z,99182.00
2019-03-03T15:44:19.956Z,99188.00
2019-03-03T15:46:51.563Z,99171.00
2019-03-03T15:49:23.214Z,99170.00
2019-03-03T15:51:54.959Z,99174.00
2019-03-03T15:54:26.486Z,99161.00
2019-03-03T15:56:58.023Z,99153.00
2019-03-03T15:59:29.581Z,99157.00
2019-03-03T16:02:02.868Z,99161.00
2019-03-03T16:04:34.668Z,99156.00
2019-03-03T16:07:06.497Z,99152.00
2019-03-03T16:09:38.020Z,99147.00
2019-03-03T16:12:09.484Z,99148.00
2019-03-03T16:14:41.031Z,99142.00
2019-03-03T16:17:12.626Z,99143.00
2019-03-03T16:19:44.340Z,99133.00
2019-03-03T16:22:15.863Z,99133.00
2019-03-03T16:24:47.554Z,99124.00
2019-03-03T16:27:19.754Z,99127.00
2019-03-03T16:29:59.385Z,99124.00
2019-03-03T16:32:30.976Z,99118.00
2019-03-03T16:35:02.772Z,99108.00
2019-03-03T16:37:34.328Z,99102.00
2019-03-03T16:40:07.694Z,99111.00
2019-03-03T16:42:40.360Z,99110.00
2019-03-03T16:45:13.014Z,99098.00
2019-03-03T16:47:45.478Z,99098.00
2019-03-03T16:50:18.808Z,99098.00
2019-03-03T16:52:51.574Z,99104.00
2019-03-03T16:55:23.590Z,99082.00
2019-03-03T16:57:55.309Z,99075.00
2019-03-03T17:00:27.319Z,99074.00
2019-03-03T17:02:58.902Z,99085.00
2019-03-03T17:05:30.714Z,99077.00
2019-03-03T17:08:02.404Z,99075.00
2019-03-03T17:10:35.701Z,99064.00
2019-03-03T17:13:07.527Z,99069.00
2019-03-03T17:15:39.151Z,99062.00
2019-03-03T17:18:10.662Z,99058.00
2019-03-03T17:20:42.246Z,99066.00
2019-03-03T17:23:13.828Z,99051.00
2019-03-03T17:25:45.494Z,99065.00
2019-03-03T17:28:16.964Z,99075.00
2019-03-03T17:30:49.609Z,99048.00
2019-03-03T17:33:21.993Z,99051.00
2019-03-03T17:35:53.484Z,99038.00
2019-03-03T17:38:24.957Z,99030.00
2019-03-03T17:40:56.521Z,99030.00
2019-03-03T17:43:29.540Z,99026.00
2019-03-03T17:46:04.274Z,99027.00
2019-03-03T17:48:36.166Z,99034.00
2019-03-03T17:51:08.267Z,99025.00
2019-03-03T17:53:39.888Z,99020.00
2019-03-03T17:56:11.954Z,99015.00
2019-03-03T17:58:43.617Z,99027.00
2019-03-03T18:01:15.199Z,99018.00
2019-03-03T18:03:46.745Z,99016.00
2019-03-03T18:06:18.237Z,99008.00
2019-03-03T18:08:49.991Z,99008.00
2019-03-03T18:11:21.570Z,99004.00
2019-03-03T18:13:53.130Z,98996.00
2019-03-03T18:16:24.669Z,98998.00
2019-03-03T18:18:56.176Z,99000.00
2019-03-03T18:21:27.718Z,99000.00
2019-03-03T18:23:59.273Z,99002.00
2019-03-03T18:26:30.790Z,98988.00
2019-03-03T18:29:03.760Z,98993.00
2019-03-03T18:31:35.738Z,98991.00
2019-03-03T18:34:08.998Z,98987.00
2019-03-03T18:36:40.841Z,98961.00
2019-03-03T18:39:12.541Z,98976.00
2019-03-03T18:41:44.543Z,98974.00
2019-03-03T18:44:18.659Z,98977.00
2019-03-03T18:46:50.205Z,98974.00
2019-03-03T18:49:21.797Z,98970.00
2019-03-03T18:51:54.026Z,98959.00
2019-03-03T18:54:25.669Z,98955.00
2019-03-03T18:56:57.282Z,98966.00
2019-03-03T18:59:28.964Z,98960.00
2019-03-03T19:02:00.559Z,98959.00
2019-03-03T19:04:32.264Z,98946.00
2019-03-03T19:07:04.221Z,98953.00
2019-03-03T19:09:36.201Z,98948.00
2019-03-03T19:12:07.907Z,98954.00
2019-03-03T19:14:39.529Z,98940.00
2019-03-03T19:17:11.221Z,98948.00
2019-03-03T19:19:48.183Z,98944.00
2019-03-03T19:22:20.231Z,98904.00
2019-03-03T19:24:52.727Z,98943.00
2019-03-03T19:27:24.749Z,98945.00
2019-03-03T19:29:56.483Z,98930.00
2019-03-03T19:32:28.228Z,98928.00
2019-03-03T19:34:59.807Z,98904.00
2019-03-03T19:37:31.722Z,98931.00
2019-03-03T19:40:03.556Z,98932.00
2019-03-03T19:42:36.344Z,98935.00
2019-03-03T19:45:16.095Z,98926.00
2019-03-03T19:47:48.009Z,98932.00
2019-03-03T19:50:19.705Z,98933.00
2019-03-03T19:52:51.587Z,98930.00
2019-03-03T19:55:25.841Z,98925.00
2019-03-03T19:57:57.444Z,98920.00
2019-03-03T20:00:36.703Z,98922.00
2019-03-03T20:03:07.600Z,98911.00
2019-03-03T20:05:39.559Z,98911.00
2019-03-03T20:08:13.118Z,98914.00
2019-03-03T20:10:47.605Z,98909.00
2019-03-03T20:13:19.367Z,98914.00
2019-03-03T20:15:51.083Z,98914.00
2019-03-03T20:18:23.107Z,98905.00
2019-03-03T20:20:55.105Z,98904.00
2019-03-03T20:23:27.409Z,98911.00
2019-03-03T20:26:01.614Z,98906.00
2019-03-03T20:28:35.692Z,98904.00
2019-03-03T20:31:07.347Z,98902.00
2019-03-03T20:33:43.673Z,98895.00
2019-03-03T20:36:18.096Z,98890.00
2019-03-03T20:38:55.076Z,98895.00
2019-03-03T20:41:29.632Z,98899.00
2019-03-03T20:44:04.628Z,98890.00
2019-03-03T20:46:36.252Z,98893.00
2019-03-03T20:49:08.223Z,98896.00
2019-03-03T20:51:40.285Z,98884.00
2019-03-03T20:54:14.136Z,98880.00
2019-03-03T20:56:45.864Z,98876.00
2019-03-03T20:59:17.446Z,98877.00
2019-03-03T21:01:49.238Z,98869.00
2019-03-03T21:04:21.518Z,98867.00
2019-03-03T21:06:54.202Z,98856.00
2019-03-03T21:09:25.822Z,98847.00
2019-03-03T21:11:57.602Z,98845.00
2019-03-03T21:14:30.340Z,98838.00
2019-03-03T21:17:03.198Z,98828.00
2019-03-03T21:19:35.174Z,98830.00
2019-03-03T21:22:06.889Z,98826.00
2019-03-03T21:24:38.905Z,98826.00
2019-03-03T21:27:12.087Z,98818.00
2019-03-03T21:29:47.708Z,98810.00
2019-03-03T21:32:19.376Z,98810.00
2019-03-03T21:34:51.056Z,98802.00
2019-03-03T21:37:22.665Z,98796.00
2019-03-03T21:39:54.340Z,98798.00
2019-03-03T21:42:25.867Z,98786.00
2019-03-03T21:44:57.390Z,98779.00
2019-03-03T21:47:28.969Z,98775.00
2019-03-03T21:50:00.570Z,98768.00
2019-03-03T21:52:45.218Z,98765.00
2019-03-03T21:55:17.017Z,98761.00
2019-03-03T21:57:48.642Z,98766.00
2019-03-03T22:00:32.150Z,98775.00
2019-03-03T22:03:03.711Z,98762.00
2019-03-03T22:05:35.790Z,98770.00
2019-03-03T22:08:09.226Z,98764.00
2019-03-03T22:10:41.316Z,98766.00
2019-03-03T22:13:14.435Z,98757.00
2019-03-03T22:15:48.556Z,98743.00
2019-03-03T22:18:20.232Z,98744.00
2019-03-03T22:20:52.226Z,98741.00
2019-03-03T22:23:23.952Z,98744.00
2019-03-03T22:25:55.693Z,98742.00
2019-03-03T22:28:27.284Z,98735.00
2019-03-03T22:30:58.761Z,98736.00
2019-03-03T22:33:30.327Z,98740.00
2019-03-03T22:36:02.101Z,98727.00
2019-03-03T22:38:33.755Z,98724.00
2019-03-03T22:41:06.338Z,98722.00
2019-03-03T22:43:39.956Z,98724.00
2019-03-03T22:46:11.565Z,98711.00
2019-03-03T22:48:43.002Z,98721.00
2019-03-03T22:51:14.565Z,98716.00
2019-03-03T22:53:49.124Z,98704.00
2019-03-03T22:56:22.038Z,98702.00
2019-03-03T22:58:53.618Z,98699.00
2019-03-03T23:01:33.752Z,98699.00
2019-03-03T23:04:48.261Z,98688.00
2019-03-03T23:08:11.593Z,98684.00
2019-03-03T23:11:40.960Z,98679.00
2019-03-03T23:15:27.676Z,98673.00
2019-03-03T23:18:58.183Z,98666.00
2019-03-03T23:22:15.160Z,98652.00
2019-03-03T23:25:58.799Z,98653.00
2019-03-03T23:28:30.988Z,98637.00
2019-03-03T23:31:02.661Z,98655.00
2019-03-03T23:33:40.080Z,98663.00
2019-03-03T23:36:11.578Z,98654.00
2019-03-03T23:38:43.157Z,98656.00
2019-03-03T23:41:18.045Z,98648.00
2019-03-03T23:43:52.694Z,98647.00
2019-03-03T23:46:23.240Z,98642.00
2019-03-03T23:48:56.597Z,98632.00
2019-03-03T23:51:29.356Z,98632.00
2019-03-03T23:54:03.509Z,98630.00
2019-03-03T23:56:35.297Z,98617.00
2019-03-03T23:59:06.862Z,98605.00
